createdAt,value
2022-11-05T15:02:24.848Z,8.70
2022-11-05T15:05:33.177Z,10.50
2022-11-05T15:08:21.722Z,10.50
2022-11-05T15:10:51.538Z,10.50
2022-11-05T15:13:30.633Z,10.50
2022-11-05T15:16:00.322Z,10.50
2022-11-05T15:18:34.550Z,10.50
2022-11-05T15:21:04.794Z,10.60
2022-11-05T15:23:42.088Z,10.70
2022-11-05T15:26:15.497Z,10.80
2022-11-05T15:28:47.117Z,10.70
2022-11-05T15:31:33.032Z,10.70
2022-11-05T15:34:18.975Z,10.70
2022-11-05T15:36:52.893Z,10.70
2022-11-05T15:39:29.961Z,10.70
2022-11-05T15:41:59.399Z,10.70
2022-11-05T15:44:30.160Z,10.70
2022-11-05T15:47:09.768Z,10.70
2022-11-05T15:49:39.524Z,10.80
2022-11-05T15:52:09.316Z,10.80
2022-11-05T15:54:37.894Z,10.80
2022-11-05T15:57:06.555Z,10.80
2022-11-05T15:59:35.540Z,10.70
2022-11-05T16:02:20.780Z,10.70
2022-11-05T16:04:51.287Z,10.70
2022-11-05T16:07:20.245Z,10.70
2022-11-05T16:09:54.573Z,10.80
2022-11-05T16:12:33.310Z,10.70
2022-11-05T16:15:05.416Z,10.60
2022-11-05T16:17:48.775Z,10.60
2022-11-05T16:20:23.846Z,10.60
2022-11-05T16:22:55.457Z,10.60
2022-11-05T16:25:33.051Z,10.60
2022-11-05T16:28:01.801Z,10.60
2022-11-05T16:30:30.320Z,10.60
2022-11-05T16:33:06.382Z,10.60
2022-11-05T16:35:41.957Z,10.60
2022-11-05T16:38:13.091Z,10.60
2022-11-05T16:40:41.358Z,10.60
2022-11-05T16:43:18.078Z,10.60
2022-11-05T16:45:46.240Z,10.50
2022-11-05T16:48:15.599Z,10.50
2022-11-05T16:50:45.889Z,10.60
2022-11-05T16:53:13.983Z,10.60
2022-11-05T16:55:44.999Z,10.40
2022-11-05T16:58:20.710Z,10.50
2022-11-05T17:00:50.365Z,10.50
2022-11-05T17:03:18.690Z,10.50
2022-11-05T17:05:48.349Z,10.50
2022-11-05T17:08:16.795Z,10.70
2022-11-05T17:10:45.087Z,10.60
2022-11-05T17:13:16.415Z,10.70
2022-11-05T17:15:46.372Z,10.60
2022-11-05T17:18:18.889Z,10.60
2022-11-05T17:20:50.703Z,10.60
2022-11-05T17:23:20.188Z,10.70
2022-11-05T17:25:50.627Z,10.60
2022-11-05T17:28:19.878Z,10.60
2022-11-05T17:30:52.884Z,10.60
2022-11-05T17:33:22.623Z,10.60
2022-11-05T17:35:52.971Z,10.60
2022-11-05T17:38:21.931Z,10.50
2022-11-05T17:40:50.717Z,10.50
2022-11-05T17:43:19.146Z,10.40
2022-11-05T17:45:49.395Z,10.30
2022-11-05T17:48:17.997Z,10.30
2022-11-05T17:50:47.983Z,10.30
2022-11-05T17:53:19.497Z,10.30
2022-11-05T17:55:48.431Z,10.30
2022-11-05T17:58:16.700Z,10.30
2022-11-05T18:00:45.878Z,10.30
2022-11-05T18:03:14.854Z,10.30
2022-11-05T18:05:44.154Z,10.30
2022-11-05T18:08:12.677Z,10.30
2022-11-05T18:10:43.086Z,10.20
2022-11-05T18:13:12.236Z,10.10
2022-11-05T18:15:41.374Z,10.10
2022-11-05T18:18:10.182Z,10.10
2022-11-05T18:20:38.498Z,10.10
2022-11-05T18:23:06.711Z,10.10
2022-11-05T18:25:34.743Z,10.10
2022-11-05T18:28:04.692Z,10.10
2022-11-05T18:30:32.777Z,10.00
2022-11-05T18:33:01.248Z,10.00
2022-11-05T18:35:29.320Z,10.00
2022-11-05T18:37:57.465Z,10.00
2022-11-05T18:40:25.786Z,10.10
2022-11-05T18:42:53.853Z,10.10
2022-11-05T18:45:28.404Z,10.10
2022-11-05T18:47:58.004Z,10.10
2022-11-05T18:50:25.960Z,10.00
2022-11-05T18:52:53.929Z,10.10
2022-11-05T18:55:22.331Z,10.10
2022-11-05T18:57:50.409Z,10.10
2022-11-05T19:00:18.516Z,10.10
2022-11-05T19:02:48.076Z,10.10
2022-11-05T19:05:31.929Z,10.10
2022-11-05T19:08:00.127Z,10.00
2022-11-05T19:10:28.311Z,10.00
2022-11-05T19:12:56.447Z,10.00
2022-11-05T19:15:24.442Z,10.00
2022-11-05T19:17:54.703Z,10.10
2022-11-05T19:20:22.769Z,10.00
2022-11-05T19:22:50.832Z,10.00
2022-11-05T19:25:18.894Z,10.00
2022-11-05T19:27:47.111Z,10.20
2022-11-05T19:30:15.189Z,10.10
2022-11-05T19:32:43.140Z,10.00
2022-11-05T19:35:12.639Z,10.00
2022-11-05T19:37:40.965Z,10.00
2022-11-05T19:40:10.601Z,9.90
2022-11-05T19:42:38.790Z,9.90
2022-11-05T19:45:30.426Z,9.90
2022-11-05T19:47:55.923Z,9.90
2022-11-05T19:50:25.888Z,9.90
2022-11-05T19:52:53.820Z,9.90
2022-11-05T19:55:21.942Z,9.80
2022-11-05T19:57:49.874Z,9.90
2022-11-05T20:00:18.327Z,9.80
2022-11-05T20:02:46.880Z,9.80
2022-11-05T20:05:15.126Z,9.70
2022-11-05T20:07:48.292Z,9.70
2022-11-05T20:10:20.550Z,9.60
2022-11-05T20:12:48.549Z,9.50
2022-11-05T20:15:18.415Z,9.50
2022-11-05T20:17:49.783Z,9.40
2022-11-05T20:20:17.786Z,9.20
2022-11-05T20:22:47.442Z,9.20
2022-11-05T20:25:15.324Z,9.00
2022-11-05T20:27:43.393Z,9.00
2022-11-05T20:30:12.005Z,8.90
2022-11-05T20:32:39.887Z,8.90
2022-11-05T20:35:09.044Z,8.90
2022-11-05T20:37:37.001Z,8.90
2022-11-05T20:40:07.619Z,8.90
2022-11-05T20:42:37.339Z,8.70
2022-11-05T20:45:05.780Z,8.70
2022-11-05T20:47:33.950Z,8.70
2022-11-05T20:50:04.131Z,8.70
2022-11-05T20:52:32.460Z,8.70
2022-11-05T20:55:01.403Z,8.70
2022-11-05T20:57:30.768Z,8.70
2022-11-05T20:59:58.656Z,8.70
2022-11-05T21:02:26.725Z,8.70
2022-11-05T21:04:54.710Z,8.80
2022-11-05T21:07:22.552Z,8.80
2022-11-05T21:09:50.599Z,8.80
2022-11-05T21:12:21.346Z,8.80
2022-11-05T21:14:50.988Z,8.80
2022-11-05T21:17:19.212Z,8.80
2022-11-05T21:19:47.632Z,8.80
2022-11-05T21:22:16.141Z,8.80
2022-11-05T21:24:44.400Z,8.80
2022-11-05T21:27:12.293Z,8.80
2022-11-05T21:29:40.192Z,8.90
2022-11-05T21:32:09.814Z,8.80
2022-11-05T21:34:37.709Z,8.70
2022-11-05T21:37:07.170Z,8.70
2022-11-05T21:39:35.330Z,8.60
2022-11-05T21:42:03.871Z,8.60
2022-11-05T21:44:31.796Z,8.50
2022-11-05T21:47:00.023Z,8.60
2022-11-05T21:49:29.465Z,8.40
2022-11-05T21:52:14.998Z,8.40
2022-11-05T21:55:00.578Z,8.30
2022-11-05T21:57:42.388Z,8.30
2022-11-05T22:00:12.363Z,8.10
2022-11-05T22:02:40.398Z,8.10
2022-11-05T22:05:10.555Z,8.10
2022-11-05T22:07:40.353Z,8.10
2022-11-05T22:10:15.616Z,8.10
2022-11-05T22:12:44.769Z,8.10
2022-11-05T22:15:14.010Z,8.00
2022-11-05T22:17:46.458Z,8.00
2022-11-05T22:20:17.753Z,7.90
2022-11-05T22:22:46.308Z,7.90
2022-11-05T22:25:15.562Z,7.90
2022-11-05T22:27:44.319Z,7.90
2022-11-05T22:30:14.380Z,7.90
2022-11-05T22:32:42.683Z,7.80
2022-11-05T22:35:11.586Z,7.80
2022-11-05T22:37:41.294Z,7.80
2022-11-05T22:40:10.160Z,7.80
2022-11-05T22:42:38.345Z,7.80
2022-11-05T22:45:08.143Z,7.80
2022-11-05T22:47:36.449Z,7.70
2022-11-05T22:50:05.323Z,7.80
2022-11-05T22:52:33.895Z,7.80
2022-11-05T22:55:05.515Z,7.90
2022-11-05T22:57:33.892Z,7.90
2022-11-05T23:00:02.223Z,7.90
2022-11-05T23:02:30.873Z,7.90
2022-11-05T23:04:59.245Z,7.90
2022-11-05T23:07:44.942Z,7.90
2022-11-05T23:10:31.563Z,7.90
2022-11-05T23:12:59.606Z,7.90
2022-11-05T23:15:44.887Z,7.90
2022-11-05T23:18:30.832Z,7.80
2022-11-05T23:21:21.836Z,7.80
2022-11-05T23:24:05.981Z,7.70
2022-11-05T23:26:52.569Z,7.70
2022-11-05T23:29:22.551Z,7.70
2022-11-05T23:32:10.473Z,7.70
2022-11-05T23:34:38.560Z,7.60
2022-11-05T23:37:24.278Z,7.70
2022-11-05T23:39:52.168Z,7.70
2022-11-05T23:42:39.539Z,7.60
2022-11-05T23:45:34.266Z,7.50
2022-11-05T23:48:17.918Z,7.60
2022-11-05T23:50:48.345Z,7.50
2022-11-05T23:53:16.593Z,7.40
2022-11-05T23:55:45.020Z,7.40
2022-11-05T23:58:15.024Z,7.40
